Time;durP1;ratioP1;P1;durP2;ratioP2;P2;SDS_P1;SDS_P2;PMS_P1;PMS_P2;Temp;Humidity;BMP_temperature;BMP_pressure;BME280_temperature;BME280_humidity;BME280_pressure;Samples;Min_cycle;Max_cycle;Signal;HPM_P1;HPM_P2
2022/10/16 00:00:57;;;;;;;8.13;2.42;;;;;;;;;;5016306;28;20049;-66
2022/10/16 00:03:23;;;;;;;7.05;1.65;;;;;;;;;;5033423;28;20099;-65
2022/10/16 00:05:49;;;;;;;5.82;1.40;;;;;;;;;;5015691;28;20052;-65
2022/10/16 00:08:15;;;;;;;9.77;1.73;;;;;;;;;;5015913;28;20045;-65
2022/10/16 00:10:41;;;;;;;6.35;1.65;;;;;;;;;;5015567;28;20053;-65
2022/10/16 00:13:07;;;;;;;5.70;2.00;;;;;;;;;;5015683;28;20041;-66
2022/10/16 00:15:36;;;;;;;9.48;2.05;;;;;;;;;;5033352;28;20477;-65
2022/10/16 00:18:02;;;;;;;5.38;1.50;;;;;;;;;;5015573;28;20209;-66
2022/10/16 00:20:28;;;;;;;8.18;2.53;;;;;;;;;;5015694;28;20085;-65
2022/10/16 00:22:54;;;;;;;9.88;2.25;;;;;;;;;;5033316;28;20089;-66
2022/10/16 00:25:20;;;;;;;8.73;2.13;;;;;;;;;;5033284;28;20091;-66
2022/10/16 00:27:46;;;;;;;8.32;1.75;;;;;;;;;;5033185;28;20044;-66
2022/10/16 00:30:13;;;;;;;9.82;1.90;;;;;;;;;;5015483;28;20536;-66
2022/10/16 00:32:39;;;;;;;10.82;1.60;;;;;;;;;;5015360;28;20124;-66
2022/10/16 00:35:05;;;;;;;4.95;1.52;;;;;;;;;;5033310;28;20116;-66
2022/10/16 00:37:31;;;;;;;8.55;1.50;;;;;;;;;;5033232;28;20040;-66
2022/10/16 00:39:57;;;;;;;10.80;2.25;;;;;;;;;;5015284;28;20041;-66
2022/10/16 00:42:23;;;;;;;8.20;1.80;;;;;;;;;;4998992;28;20057;-66
2022/10/16 00:44:55;;;;;;;6.57;1.30;;;;;;;;;;5015916;28;20119;-66
2022/10/16 00:47:29;;;;;;;6.20;1.48;;;;;;;;;;5019371;28;20058;-66
2022/10/16 00:49:58;;;;;;;7.32;1.80;;;;;;;;;;5036969;28;20046;-66
2022/10/16 00:52:24;;;;;;;8.93;1.63;;;;;;;;;;5019271;28;20037;-66
2022/10/16 00:54:51;;;;;;;4.25;1.65;;;;;;;;;;5019222;28;20050;-66
2022/10/16 00:57:17;;;;;;;8.02;2.25;;;;;;;;;;5019136;28;20073;-66
2022/10/16 00:59:43;;;;;;;2.97;1.20;;;;;;;;;;5036843;28;20041;-66
2022/10/16 01:02:11;;;;;;;5.80;1.65;;;;;;;;;;5019177;28;20071;-66
2022/10/16 01:04:42;;;;;;;6.18;1.65;;;;;;;;;;5037166;28;20481;-66
2022/10/16 01:07:08;;;;;;;6.53;1.60;;;;;;;;;;5019063;28;20041;-66
2022/10/16 01:09:37;;;;;;;8.02;1.67;;;;;;;;;;5036718;28;20091;-66
2022/10/16 01:12:09;;;;;;;4.80;1.60;;;;;;;;;;5019019;28;20096;-66
2022/10/16 01:14:41;;;;;;;4.55;1.55;;;;;;;;;;5019116;28;20042;-66
2022/10/16 01:17:11;;;;;;;2.58;1.05;;;;;;;;;;5002493;28;20103;-66
2022/10/16 01:19:52;;;;;;;7.20;1.65;;;;;;;;;;5019074;28;20434;-66
2022/10/16 01:22:20;;;;;;;4.93;1.38;;;;;;;;;;5018491;28;20123;-66
2022/10/16 01:24:49;;;;;;;5.72;1.70;;;;;;;;;;5018722;28;20433;-65
2022/10/16 01:27:24;;;;;;;8.00;1.70;;;;;;;;;;5018523;28;20050;-66
2022/10/16 01:29:56;;;;;;;4.18;1.48;;;;;;;;;;5018453;28;20115;-66
2022/10/16 01:32:22;;;;;;;9.63;1.88;;;;;;;;;;5018841;28;20432;-66
2022/10/16 01:34:51;;;;;;;5.78;1.58;;;;;;;;;;5018772;28;20049;-66
2022/10/16 01:37:22;;;;;;;4.03;1.40;;;;;;;;;;5036156;28;20116;-66
2022/10/16 01:39:50;;;;;;;8.88;1.85;;;;;;;;;;5036330;28;20052;-66
2022/10/16 01:42:23;;;;;;;4.28;1.73;;;;;;;;;;5018902;28;20063;-66
2022/10/16 01:44:51;;;;;;;6.32;1.50;;;13.00;99.90;;;;;;5036194;28;20041;-66
2022/10/16 01:47:18;;;;;;;3.03;1.30;;;;;;;;;;5036051;28;20091;-66
2022/10/16 01:49:45;;;;;;;5.85;1.65;;;;;;;;;;5035827;28;20429;-66
2022/10/16 01:52:13;;;;;;;5.25;1.27;;;;;;;;;;5018525;28;20041;-66
2022/10/16 01:54:41;;;;;;;6.15;1.73;;;;;;;;;;5018182;28;20044;-66
2022/10/16 01:57:08;;;;;;;5.60;1.42;;;;;;;;;;5018211;28;20069;-66
2022/10/16 01:59:37;;;;;;;3.72;1.42;;;;;;;;;;5001947;28;20077;-66
2022/10/16 02:02:06;;;;;;;5.18;1.63;;;;;;;;;;5017951;28;20045;-65
2022/10/16 02:04:35;;;;;;;7.40;2.10;;;;;;;;;;5035699;28;20041;-65
2022/10/16 02:07:01;;;;;;;6.35;1.85;;;;;;;;;;5035716;28;20064;-65
2022/10/16 02:09:27;;;;;;;5.78;1.77;;;;;;;;;;5017969;28;20091;-65
2022/10/16 02:11:56;;;;;;;3.45;1.90;;;;;;;;;;5017691;28;20397;-66
2022/10/16 02:14:24;;;;;;;7.15;2.10;;;;;;;;;;5035496;28;20116;-66
2022/10/16 02:16:50;;;;;;;5.40;1.90;;;;;;;;;;5035458;28;20051;-65
2022/10/16 02:19:19;;;;;;;7.13;2.03;;;;;;;;;;5001212;28;20052;-65
2022/10/16 02:22:00;;;;;;;4.60;2.00;;;;;;;;;;5035491;28;20045;-65
2022/10/16 02:24:35;;;;;;;5.45;2.10;;;;;;;;;;5017578;28;20049;-65
2022/10/16 02:27:08;;;;;;;4.10;1.90;;;;;;;;;;5017914;28;20176;-66
2022/10/16 02:29:37;;;;;;;7.30;2.35;;;;;;;;;;5017371;28;20501;-65
2022/10/16 02:32:04;;;;;;;5.63;2.30;;;;;;;;;;5035200;28;20064;-66
2022/10/16 02:34:32;;;;;;;4.80;2.10;;;;;;;;;;5001023;28;20042;-65
2022/10/16 02:36:59;;;;;;;4.82;2.10;;;;;;;;;;5035166;28;20088;-66
2022/10/16 02:39:26;;;;;;;4.07;2.10;;;;;;;;;;5017368;28;20041;-66
2022/10/16 02:41:52;;;;;;;4.95;2.28;;;;;;;;;;5034825;28;20049;-66
2022/10/16 02:44:19;;;;;;;4.85;2.05;;;;;;;;;;5017048;28;20045;-65
2022/10/16 02:46:45;;;;;;;3.70;2.17;;;;;;;;;;5034890;28;20124;-65
2022/10/16 02:49:11;;;;;;;7.45;1.92;;;;;;;;;;5034786;28;20128;-66
2022/10/16 02:51:37;;;;;;;5.97;2.10;;;;;;;;;;5017223;28;20037;-65
2022/10/16 02:54:03;;;;;;;5.88;1.98;;;;;;;;;;5034876;28;20486;-66
2022/10/16 02:56:30;;;;;;;8.27;2.40;;;;;;;;;;5034837;28;20049;-65
2022/10/16 02:58:56;;;;;;;2.75;1.90;;;;;;;;;;5017109;28;20477;-65
2022/10/16 03:01:23;;;;;;;5.75;1.88;;;;;;;;;;5034473;28;20405;-65
2022/10/16 03:03:49;;;;;;;4.32;1.92;;;;;;;;;;5000470;28;20503;-66
2022/10/16 03:06:15;;;;;;;3.65;1.88;;;;;;;;;;5017105;28;20417;-69
2022/10/16 03:08:42;;;;;;;5.13;2.38;;;;;;;;;;5033634;28;20073;-69
2022/10/16 03:11:08;;;;;;;3.53;1.90;;;;;;;;;;5034401;28;20458;-70
2022/10/16 03:13:34;;;;;;;3.85;2.10;;;;;;;;;;5000156;28;20084;-69
2022/10/16 03:16:00;;;;;;;5.78;2.10;;;;;;;;;;5016553;28;20045;-69
2022/10/16 03:18:26;;;;;;;4.60;2.20;;;;;;;;;;5016549;28;20038;-69
2022/10/16 03:20:52;;;;;;;6.95;2.10;;;;;;;;;;5034138;28;20041;-69
2022/10/16 03:23:18;;;;;;;6.82;2.15;;;;;;;;;;5033957;28;21268;-69
2022/10/16 03:25:44;;;;;;;6.18;2.40;;;;;;;;;;5034016;28;20043;-69
2022/10/16 03:28:10;;;;;;;6.45;2.90;;;;;;;;;;5016315;28;20037;-70
2022/10/16 03:30:36;;;;;;;3.78;1.75;;;;;;;;;;5033999;28;20088;-70
2022/10/16 03:33:02;;;;;;;4.60;1.70;;;;;;;;;;4999902;28;20076;-70
2022/10/16 03:35:29;;;;;;;6.88;1.90;;;;;;;;;;5016466;28;20048;-70
2022/10/16 03:37:56;;;;;;;4.55;1.90;;;;;;;;;;5016296;28;20041;-70
2022/10/16 03:40:22;;;;;;;5.13;1.48;;;;;;;;;;5016272;28;20056;-69
2022/10/16 03:42:48;;;;;;;3.92;1.70;;;;;;;;;;5016393;28;20457;-69
2022/10/16 03:45:14;;;;;;;2.40;1.60;;;;;;;;;;5000114;28;20045;-70
2022/10/16 03:47:40;;;;;;;6.22;1.92;;;;;;;;;;5016210;28;20512;-69
2022/10/16 03:50:07;;;;;;;4.30;1.70;;;;;;;;;;5015842;28;20548;-69
2022/10/16 03:52:33;;;;;;;4.95;1.85;;;;;;;;;;5015891;28;20055;-69
2022/10/16 03:54:59;;;;;;;6.57;1.92;;;;;;;;;;5015964;28;20041;-69
2022/10/16 03:57:25;;;;;;;2.08;1.40;;;;;;;;;;5033752;28;20033;-69
2022/10/16 03:59:51;;;;;;;5.95;1.85;;;;;;;;;;5016145;28;20120;-69
2022/10/16 04:02:17;;;;;;;4.20;1.70;;;;;;;;;;4999506;28;20045;-69
2022/10/16 04:04:43;;;;;;;11.45;2.42;;;;;;;;;;5033483;28;20489;-69
2022/10/16 04:07:09;;;;;;;3.70;1.70;;;;;;;;;;5033405;28;20402;-69
2022/10/16 04:09:35;;;;;;;5.60;1.63;;;;;;;;;;5015519;28;20072;-70
2022/10/16 04:12:01;;;;;;;5.53;1.80;;;;;;;;;;5015531;28;20040;-69
2022/10/16 04:14:27;;;;;;;7.00;2.38;;;;;;;;;;5033319;28;20045;-69
2022/10/16 04:16:53;;;;;;;6.47;2.45;;;;;;;;;;5015593;28;20087;-69
2022/10/16 04:19:19;;;;;;;7.28;2.13;;;;;;;;;;5014999;28;20049;-70
2022/10/16 04:21:45;;;;;;;5.28;1.90;;;;;;;;;;5032938;28;20041;-70
2022/10/16 04:24:12;;;;;;;6.65;1.92;;;;;;;;;;5015399;28;20192;-70
2022/10/16 04:26:38;;;;;;;8.20;2.47;;;;;;;;;;5015605;28;20052;-69
2022/10/16 04:29:04;;;;;;;7.20;2.20;;;;;;;;;;5033084;28;20045;-69
2022/10/16 04:31:30;;;;;;;9.38;2.05;;;;;;;;;;5033065;28;20131;-69
2022/10/16 04:33:56;;;;;;;4.85;1.70;;;;;;;;;;5015512;28;20113;-69
2022/10/16 04:36:22;;;;;;;6.38;1.75;;;;;;;;;;4999294;28;20051;-69
2022/10/16 04:38:48;;;;;;;8.77;2.13;;;;;;;;;;4998881;28;20068;-69
2022/10/16 04:41:14;;;;;;;3.83;1.73;;;;;;;;;;5015224;28;20052;-69
2022/10/16 04:43:40;;;;;;;7.63;1.85;;;;;;;;;;5015746;28;20033;-69
2022/10/16 04:46:06;;;;;;;4.63;1.70;;;;;;;;;;5033198;28;20494;-69
2022/10/16 04:48:32;;;;;;;6.03;1.83;;;;;;;;;;5015581;28;20041;-69
2022/10/16 04:50:59;;;;;;;7.18;1.73;;;;;;;;;;5015157;28;20052;-69
2022/10/16 04:53:25;;;;;;;5.95;1.92;;;;;;;;;;5032773;28;20113;-69
2022/10/16 04:55:51;;;;;;;7.75;1.80;;;;;;;;;;5015029;28;20049;-69
2022/10/16 04:58:17;;;;;;;5.80;1.70;;;;;;;;;;5015065;28;20045;-69
2022/10/16 05:00:45;;;;;;;5.57;1.63;;;;;;;;;;5032849;28;20045;-70
2022/10/16 05:03:12;;;;;;;4.47;1.75;;;;;;;;;;5032815;28;20128;-69
2022/10/16 05:05:42;;;;;;;4.63;1.80;;;;;;;;;;5014978;28;20050;-69
2022/10/16 05:08:08;;;;;;;7.30;1.70;;;;;;;;;;5015152;28;20076;-69
2022/10/16 05:10:34;;;;;;;7.90;1.80;;;;;;;;;;5031650;28;20041;-69
2022/10/16 05:13:00;;;;;;;11.50;2.38;;;;;;;;;;5015014;28;20042;-69
2022/10/16 05:15:27;;;;;;;3.60;1.63;;;;;;;;;;5015076;28;20041;-69
2022/10/16 05:17:54;;;;;;;7.53;2.42;;;;;;;;;;5032712;28;20448;-69
2022/10/16 05:20:20;;;;;;;6.45;2.25;;;;;;;;;;5032923;28;20053;-70
2022/10/16 05:22:46;;;;;;;5.78;2.17;;;;;;;;;;5032746;28;20050;-69
2022/10/16 05:25:12;;;;;;;4.38;2.45;;;;;;;;;;5015077;28;20045;-69
2022/10/16 05:27:38;;;;;;;3.78;2.10;;;;;;;;;;5014931;28;20049;-69
2022/10/16 05:30:04;;;;;;;5.90;2.55;;;;;;;;;;5014958;28;20049;-69
2022/10/16 05:32:30;;;;;;;11.00;3.70;;;;;;;;;;5035464;28;20038;-70
2022/10/16 05:34:56;;;;;;;6.03;2.72;;;;;;;;;;5036643;28;20374;-69
2022/10/16 05:37:22;;;;;;;5.53;2.42;;;;;;;;;;5018719;28;20053;-69
2022/10/16 05:39:48;;;;;;;8.55;2.90;;;;;;;;;;5018345;28;20478;-69
2022/10/16 05:42:14;;;;;;;9.30;2.78;;;;;;;;;;5018460;28;20489;-69
2022/10/16 05:44:40;;;;;;;8.55;2.90;;;;;;;;;;5002265;28;20097;-69
2022/10/16 05:47:06;;;;;;;6.18;3.15;;;;;;;;;;5018324;28;20049;-69
2022/10/16 05:49:33;;;;;;;6.20;3.15;;;;;;;;;;5035962;28;20512;-69
2022/10/16 05:51:59;;;;;;;5.93;2.83;;;;;;;;;;5035997;28;20134;-69
2022/10/16 05:54:25;;;;;;;6.88;2.70;;;;;;;;;;5018167;28;20041;-69
2022/10/16 05:56:51;;;;;;;8.40;2.85;;;;;;;;;;5035725;28;20037;-69
2022/10/16 05:59:17;;;;;;;11.02;3.58;;;;;;;;;;5035704;28;20837;-69
2022/10/16 06:01:43;;;;;;;7.45;2.95;;;;;;;;;;5018055;28;20128;-69
2022/10/16 06:04:09;;;;;;;7.03;3.25;;;;;;;;;;5018278;28;20042;-69
2022/10/16 06:06:36;;;;;;;7.10;2.88;;;;;;;;;;5035411;28;20478;-69
2022/10/16 06:09:02;;;;;;;11.23;3.03;;;;;;;;;;5035409;28;20034;-69
2022/10/16 06:11:29;;;;;;;8.73;2.80;;;;;;;;;;5017810;28;20116;-69
2022/10/16 06:13:57;;;;;;;11.93;3.08;;;;;;;;;;5001413;28;20091;-69
2022/10/16 06:16:24;;;;;;;4.30;2.47;;;;;;;;;;5017607;28;20413;-69
2022/10/16 06:18:54;;;;;;;6.28;2.80;;;;;;;;;;5017587;28;20037;-69
2022/10/16 06:21:21;;;;;;;7.65;3.22;;;;;;;;;;5017519;28;20508;-69
2022/10/16 06:23:47;;;;;;;7.18;2.72;;;;;;;;;;5035121;28;20057;-69
2022/10/16 06:26:15;;;;;;;8.35;2.85;;;;;;;;;;5017902;28;20045;-69
2022/10/16 06:28:41;;;;;;;10.32;2.92;;;;;;;;;;5017700;28;20486;-69
2022/10/16 06:31:08;;;;;;;8.25;2.55;;;12.70;99.90;;;;;;5017247;28;20409;-69
2022/10/16 06:33:35;;;;;;;6.75;2.67;;;;;;;;;;5035292;28;20165;-69
2022/10/16 06:36:05;;;;;;;10.77;2.83;;;;;;;;;;5017451;28;20072;-69
2022/10/16 06:38:32;;;;;;;8.15;2.45;;;;;;;;;;5035032;28;20037;-69
2022/10/16 06:40:58;;;;;;;11.32;2.55;;;;;;;;;;5017476;28;20053;-70
2022/10/16 06:43:24;;;;;;;12.13;3.10;;;;;;;;;;5016175;28;20048;-69
2022/10/16 06:45:54;;;;;;;9.77;2.42;;;;;;;;;;5035097;28;20033;-69
2022/10/16 06:48:20;;;;;;;9.90;2.50;;;;;;;;;;5000822;28;20084;-69
2022/10/16 06:50:59;;;;;;;5.57;2.30;;;;;;;;;;5016850;28;20045;-69
2022/10/16 06:53:27;;;;;;;9.23;2.38;;;;;;;;;;5017043;28;20045;-69
2022/10/16 06:55:53;;;;;;;9.18;2.42;;;;;;;;;;5016942;28;20115;-69
2022/10/16 06:58:19;;;;;;;7.75;2.30;;;;;;;;;;5034629;28;20050;-69
2022/10/16 07:00:45;;;;;;;7.43;2.10;;;;;;;;;;5016890;28;20052;-69
2022/10/16 07:03:11;;;;;;;8.93;2.50;;;;;;;;;;5016811;28;20045;-69
2022/10/16 07:05:41;;;;;;;6.82;2.00;;;;;;;;;;5016685;28;20504;-70
2022/10/16 07:08:07;;;;;;;12.60;2.55;;;;;;;;;;5016888;28;20128;-70
2022/10/16 07:10:33;;;;;;;6.97;2.25;;;;;;;;;;5016538;28;20068;-71
2022/10/16 07:12:59;;;;;;;4.53;2.00;;;;;;;;;;5016638;28;20044;-71
2022/10/16 07:15:26;;;;;;;8.07;2.08;;;;;;;;;;5016819;28;20033;-69
2022/10/16 07:17:52;;;;;;;6.57;2.42;;;;;;;;;;5034224;28;20504;-69
2022/10/16 07:20:18;;;;;;;8.00;3.67;;;;;;;;;;5000133;28;20048;-68
2022/10/16 07:22:44;;;;;;;6.78;2.10;;;;;;;;;;5016414;28;20108;-68
2022/10/16 07:25:11;;;;;;;7.00;1.98;;;;;;;;;;5034205;28;20532;-69
2022/10/16 07:27:37;;;;;;;6.10;2.25;;;;;;;;;;5016254;28;20478;-68
2022/10/16 07:30:04;;;;;;;6.65;2.30;;;;;;;;;;5000018;28;20203;-68
2022/10/16 07:32:30;;;;;;;6.55;2.58;;;;;;;;;;5034020;28;20037;-68
2022/10/16 07:34:56;;;;;;;5.15;2.35;;;;;;;;;;5016406;28;20037;-68
2022/10/16 07:37:22;;;;;;;9.20;3.13;;;;;;;;;;5016225;28;20044;-69
2022/10/16 07:39:49;;;;;;;6.72;2.30;;;;;;;;;;5033683;28;20598;-70
2022/10/16 07:42:15;;;;;;;9.75;2.55;;;;;;;;;;5016155;28;20054;-69
2022/10/16 07:44:41;;;;;;;6.95;2.55;;;;;;;;;;5033721;28;20570;-71
2022/10/16 07:47:07;;;;;;;6.13;2.47;;;;;;;;;;5015982;28;20041;-68
2022/10/16 07:49:34;;;;;;;8.88;2.97;;;;;;;;;;5015773;28;20056;-69
2022/10/16 07:52:00;;;;;;;8.02;3.00;;;;;;;;;;5015953;28;20045;-69
2022/10/16 07:54:26;;;;;;;8.05;3.40;;;;;;;;;;5033460;28;20424;-69
2022/10/16 07:56:52;;;;;;;8.43;3.65;;;;;;;;;;5034036;28;20048;-68
2022/10/16 07:59:18;;;;;;;6.57;3.15;;;;;;;;;;5033940;28;20049;-68
2022/10/16 08:01:44;;;;;;;9.07;3.40;;;;;;;;;;5015844;28;20052;-69
2022/10/16 08:04:10;;;;;;;6.18;3.10;;;;;;;;;;5032304;28;20512;-69
2022/10/16 08:06:37;;;;;;;13.82;2.83;;;;;;;;;;5015636;28;20042;-68
2022/10/16 08:09:03;;;;;;;10.63;2.70;;;;;;;;;;5015319;28;20128;-69
2022/10/16 08:11:29;;;;;;;7.18;2.40;;;;;;;;;;5015738;28;20095;-69
2022/10/16 08:13:55;;;;;;;6.00;2.33;;;;;;;;;;5015647;28;20044;-69
2022/10/16 08:16:22;;;;;;;6.20;2.55;;;;;;;;;;5016015;28;20044;-69
2022/10/16 08:18:48;;;;;;;5.55;2.40;;;;;;;;;;5015609;28;20486;-69
2022/10/16 08:21:16;;;;;;;8.77;2.70;;;;;;;;;;5015440;28;20087;-69
2022/10/16 08:23:43;;;;;;;7.40;2.58;;;;;;;;;;5015431;28;20057;-68
2022/10/16 08:26:09;;;;;;;8.35;2.33;;;;;;;;;;5015614;28;20041;-68
2022/10/16 08:28:35;;;;;;;8.00;2.38;;;;;;;;;;5033230;28;20041;-68
2022/10/16 08:31:09;;;;;;;7.53;3.10;;;;;;;;;;5015314;28;20045;-68
2022/10/16 08:33:35;;;;;;;10.27;3.13;;;;;;;;;;5015450;28;20041;-69
2022/10/16 08:36:01;;;;;;;11.32;2.97;;;;;;;;;;5033380;28;20045;-69
2022/10/16 08:38:27;;;;;;;9.30;2.72;;;;;;;;;;5015751;28;20103;-69
2022/10/16 08:40:57;;;;;;;8.88;3.83;;;;;;;;;;5015524;28;20092;-70
2022/10/16 08:43:30;;;;;;;10.93;2.83;;;;;;;;;;5032987;28;20041;-70
2022/10/16 08:46:15;;;;;;;4.72;2.25;;;13.60;99.90;;;;;;5015270;28;20045;-69
2022/10/16 08:48:58;;;;;;;11.73;3.45;;;;;;;;;;5032951;28;20038;-69
2022/10/16 08:51:28;;;;;;;6.18;2.75;;;;;;;;;;5015491;28;20053;-68
2022/10/16 08:53:56;;;;;;;7.82;2.63;;;;;;;;;;5032838;28;20444;-68
2022/10/16 08:56:23;;;;;;;10.63;2.90;;;;;;;;;;5015269;28;20038;-68
2022/10/16 08:58:49;;;;;;;11.60;2.28;;;;;;;;;;5032733;28;20033;-69
2022/10/16 09:01:18;;;;;;;5.55;2.00;;;;;;;;;;5015170;28;20128;-69
2022/10/16 09:03:53;;;;;;;5.20;2.13;;;;;;;;;;5032940;28;20171;-70
2022/10/16 09:06:19;;;;;;;7.50;2.28;;;;;;;;;;5016999;28;20045;-69
2022/10/16 09:08:45;;;;;;;6.57;2.50;;;;;;;;;;5019203;28;20114;-69
2022/10/16 09:11:19;;;;;;;7.88;2.20;;;;;;;;;;5036671;28;20092;-69
2022/10/16 09:14:09;;;;;;;12.23;2.60;;;;;;;;;;5002489;28;20056;-69
2022/10/16 09:16:41;;;;;;;8.90;2.65;;;;;;;;;;5051560;28;20417;-69
2022/10/16 09:19:28;;;;;;;10.07;2.60;;;;;;;;;;5002521;28;20134;-69
2022/10/16 09:21:54;;;;;;;9.27;2.15;;;;;;;;;;5018683;28;20129;-69
2022/10/16 09:24:23;;;;;;;10.73;2.45;;;;;;;;;;5018535;28;20057;-69
2022/10/16 09:26:49;;;;;;;8.35;2.10;;;;;;;;;;5036372;28;20120;-69
2022/10/16 09:29:20;;;;;;;13.80;2.88;;;;;;;;;;5036416;28;20033;-66
2022/10/16 09:31:46;;;;;;;10.32;2.65;;;;;;;;;;5018528;28;20045;-68
2022/10/16 09:34:32;;;;;;;7.18;2.30;;;;;;;;;;5018798;28;20389;-69
2022/10/16 09:37:00;;;;;;;16.05;3.10;;;;;;;;;;5018528;28;20179;-69
2022/10/16 09:39:26;;;;;;;7.80;2.40;;;;;;;;;;5036322;28;20140;-65
2022/10/16 09:41:52;;;;;;;14.23;2.20;;;;;;;;;;5018523;28;20089;-65
2022/10/16 09:44:38;;;;;;;8.52;2.40;;;14.80;99.90;;;;;;5036179;28;20385;-65
2022/10/16 09:47:06;;;;;;;6.53;2.35;;;;;;;;;;5018541;28;20339;-66
2022/10/16 09:49:32;;;;;;;10.48;2.83;;;;;;;;;;5001999;28;20052;-65
2022/10/16 09:52:14;;;;;;;13.68;2.92;;;;;;;;;;5018235;28;20038;-66
2022/10/16 09:54:57;;;;;;;12.63;2.30;;;;;;;;;;5018274;28;20128;-66
2022/10/16 09:57:23;;;;;;;13.55;2.17;;;;;;;;;;5018299;28;20256;-65
2022/10/16 09:59:51;;;;;;;16.33;3.00;;;;;;;;;;5036233;28;20044;-65
2022/10/16 10:02:19;;;;;;;17.02;2.60;;;;;;;;;;5018081;28;20045;-65
2022/10/16 10:04:50;;;;;;;8.63;2.47;;;;;;;;;;5018232;28;20048;-66
2022/10/16 10:07:19;;;;;;;19.40;2.70;;;;;;;;;;5018200;28;20393;-66
2022/10/16 10:09:45;;;;;;;16.02;2.50;;;;;;;;;;5017958;28;20045;-66
2022/10/16 10:12:19;;;;;;;18.42;2.90;;;;;;;;;;5035535;28;20121;-65
2022/10/16 10:14:46;;;;;;;21.83;3.25;;;;;;;;;;5035742;28;20044;-65
2022/10/16 10:17:12;;;;;;;23.95;4.20;;;;;;;;;;5035549;28;20080;-65
2022/10/16 10:19:41;;;;;;;23.02;3.45;;;;;;;;;;5018032;28;20099;-66
2022/10/16 10:22:17;;;;;;;19.48;3.67;;;;;;;;;;5017501;28;20041;-66
2022/10/16 10:24:44;;;;;;;19.63;3.20;;;;;;;;;;5017613;28;20572;-66
2022/10/16 10:27:15;;;;;;;20.98;3.55;;;;;;;;;;5017836;28;20096;-65
2022/10/16 10:29:44;;;;;;;21.30;3.45;;;;;;;;;;5017448;28;20037;-67
2022/10/16 10:32:13;;;;;;;20.67;2.83;;;;;;;;;;5017511;28;20076;-66
2022/10/16 10:34:40;;;;;;;21.65;3.30;;;;;;;;;;5035041;28;20505;-65
2022/10/16 10:37:18;;;;;;;24.25;3.20;;;;;;;;;;5035268;28;20133;-65
2022/10/16 10:39:49;;;;;;;18.15;3.13;;;;;;;;;;5017443;28;20053;-66
2022/10/16 10:42:22;;;;;;;17.73;3.67;;;;;;;;;;5035231;28;20041;-65
2022/10/16 10:45:00;;;;;;;31.20;3.45;;;;;;;;;;5034971;28;20045;-65
2022/10/16 10:47:41;;;;;;;21.40;3.08;;;;;;;;;;5017114;28;20465;-66
2022/10/16 10:50:30;;;;;;;16.63;3.25;;;;;;;;;;5017237;28;20059;-66
2022/10/16 10:52:56;;;;;;;18.63;2.78;;;;;;;;;;5017102;28;20033;-66
2022/10/16 10:55:40;;;;;;;19.58;2.83;;;;;;;;;;5034679;28;20079;-66
2022/10/16 10:58:09;;;;;;;17.00;2.63;;;;;;;;;;5017182;28;20053;-66
2022/10/16 11:00:38;;;;;;;19.02;2.85;;;;;;;;;;5034639;28;20073;-66
2022/10/16 11:03:14;;;;;;;17.70;3.20;;;;;;;;;;5034756;28;20489;-66
2022/10/16 11:05:50;;;;;;;15.30;2.35;;;;;;;;;;5034658;28;20033;-65
2022/10/16 11:08:20;;;;;;;11.80;2.83;;;;;;;;;;5034318;28;20041;-65
2022/10/16 11:10:52;;;;;;;17.45;3.20;;;;;;;;;;5016688;28;20056;-65
2022/10/16 11:13:24;;;;;;;14.63;2.15;;;;;;;;;;5016722;28;20490;-66
2022/10/16 11:15:52;;;;;;;18.85;2.50;;;;;;;;;;5016823;28;20046;-71
2022/10/16 11:18:23;;;;;;;19.10;3.00;;;;;;;;;;5016459;28;20532;-70
2022/10/16 11:20:52;;;;;;;9.43;2.40;;;;;;;;;;5000190;28;20045;-66
2022/10/16 11:23:26;;;;;;;13.27;2.85;;;;;;;;;;5011658;28;20058;-66
2022/10/16 11:25:54;;;;;;;14.68;3.25;;;;;;;;;;5013308;28;20046;-68
2022/10/16 11:28:30;;;;;;;15.65;2.70;;;;;;;;;;5012568;28;20045;-68
2022/10/16 11:31:15;;;;;;;12.43;2.33;;;;;;;;;;5014082;28;20060;-68
2022/10/16 11:33:55;;;;;;;15.95;2.88;;;;;;;;;;5013708;28;20114;-68
2022/10/16 11:36:21;;;;;;;12.27;2.08;;;;;;;;;;5012100;28;20042;-68
2022/10/16 11:38:54;;;;;;;15.88;2.67;;;;;;;;;;5011594;28;20549;-68
2022/10/16 11:41:26;;;;;;;15.93;2.75;;;;;;;;;;5011402;28;20046;-68
2022/10/16 11:44:31;;;;;;;11.60;2.20;;;17.10;99.90;;;;;;5012363;28;20088;-68
2022/10/16 11:47:33;;;;;;;17.58;2.60;;;17.10;99.90;;;;;;4994638;28;20407;-68
2022/10/16 11:50:04;;;;;;;11.23;2.00;;;;;;;;;;5012110;28;20033;-70
2022/10/16 11:52:52;;;;;;;12.52;2.47;;;;;;;;;;5011927;28;20042;-70
2022/10/16 11:55:20;;;;;;;15.82;2.35;;;;;;;;;;5012792;28;20060;-71
2022/10/16 11:57:49;;;;;;;13.15;2.42;;;;;;;;;;5011921;28;20394;-71
2022/10/16 12:00:24;;;;;;;13.43;3.03;;;;;;;;;;5012157;28;20042;-70
2022/10/16 12:03:22;;;;;;;14.27;2.97;;;17.40;99.90;;;;;;4993504;28;20034;-70
2022/10/16 12:05:57;;;;;;;19.20;3.70;;;;;;;;;;5010238;28;20056;-71
2022/10/16 12:08:24;;;;;;;12.98;2.50;;;;;;;;;;5010442;28;20046;-71
2022/10/16 12:10:50;;;;;;;17.35;2.83;;;;;;;;;;5013203;28;20037;-71
2022/10/16 12:13:29;;;;;;;13.10;2.50;;;;;;;;;;5012804;28;20037;-71
2022/10/16 12:16:14;;;;;;;15.48;2.58;;;;;;;;;;5011096;28;20406;-70
2022/10/16 12:18:41;;;;;;;11.50;2.28;;;;;;;;;;5011638;28;20111;-71
2022/10/16 12:21:07;;;;;;;14.65;3.13;;;;;;;;;;4978463;28;20048;-71
2022/10/16 12:23:37;;;;;;;13.73;2.47;;;;;;;;;;5025522;28;20057;-71
2022/10/16 12:26:04;;;;;;;12.57;2.28;;;;;;;;;;5015355;28;20206;-71
2022/10/16 12:28:32;;;;;;;14.23;2.15;;;;;;;;;;5014644;28;20041;-71
2022/10/16 12:31:06;;;;;;;13.50;3.15;;;;;;;;;;5014847;28;20041;-71
2022/10/16 12:33:42;;;;;;;15.82;2.40;;;;;;;;;;5031175;28;20422;-71
2022/10/16 12:36:16;;;;;;;11.07;2.33;;;;;;;;;;4996578;28;20044;-71
2022/10/16 12:38:48;;;;;;;10.25;1.80;;;;;;;;;;5029947;28;20040;-71
2022/10/16 12:41:24;;;;;;;10.73;2.63;;;;;;;;;;5016254;28;20132;-71
2022/10/16 12:43:50;;;;;;;19.35;2.85;;;;;;;;;;5017358;28;20045;-70
2022/10/16 12:46:17;;;;;;;11.30;2.22;;;;;;;;;;5036472;28;20092;-71
2022/10/16 12:48:44;;;;;;;12.45;2.30;;;;;;;;;;4999726;28;20033;-71
2022/10/16 12:51:30;;;;;;;12.48;2.53;;;;;;;;;;5017707;28;20049;-70
2022/10/16 12:54:00;;;;;;;16.23;2.80;;;;;;;;;;5002462;28;20137;-71
2022/10/16 12:56:38;;;;;;;14.85;2.35;;;;;;;;;;5018260;28;20069;-71
2022/10/16 12:59:07;;;;;;;13.63;2.22;;;;;;;;;;5036054;28;20038;-71
2022/10/16 13:01:36;;;;;;;13.10;2.70;;;;;;;;;;5017949;28;20045;-70
2022/10/16 13:04:17;;;;;;;19.63;2.22;;;;;;;;;;5019365;28;20362;-71
2022/10/16 13:06:52;;;;;;;11.88;2.35;;;;;;;;;;5036688;28;20438;-71
2022/10/16 13:09:24;;;;;;;14.27;2.20;;;;;;;;;;5018627;28;20485;-71
2022/10/16 13:11:53;;;;;;;12.85;3.15;;;;;;;;;;5036712;28;20107;-71
2022/10/16 13:14:26;;;;;;;12.23;2.53;;;;;;;;;;5018869;28;20048;-71
2022/10/16 13:17:12;;;;;;;10.52;1.95;;;;;;;;;;5018875;28;20041;-71
2022/10/16 13:19:55;;;;;;;11.65;2.30;;;;;;;;;;5036571;28;20053;-71
2022/10/16 13:22:21;;;;;;;19.30;3.10;;;;;;;;;;5018692;28;20541;-71
2022/10/16 13:24:51;;;;;;;12.75;2.10;;;;;;;;;;5002719;28;20049;-76
2022/10/16 13:27:26;;;;;;;10.48;2.55;;;;;;;;;;5017826;28;20041;-70
2022/10/16 13:30:01;;;;;;;10.27;2.33;;;;;;;;;;5017833;28;20046;-70
2022/10/16 13:32:28;;;;;;;11.10;1.90;;;;;;;;;;5014570;28;20366;-70
2022/10/16 13:34:55;;;;;;;11.65;1.75;;;;;;;;;;5016713;28;20128;-70
2022/10/16 13:37:22;;;;;;;10.25;2.20;;;;;;;;;;5017741;28;20037;-70
2022/10/16 13:39:50;;;;;;;12.02;2.42;;;;;;;;;;5017353;28;20037;-70
2022/10/16 13:42:28;;;;;;;12.02;1.95;;;17.50;99.90;;;;;;5017093;28;20045;-70
2022/10/16 13:44:55;;;;;;;11.88;2.20;;;;;;;;;;5035450;28;20033;-70
2022/10/16 13:47:29;;;;;;;15.90;2.25;;;;;;;;;;5017494;28;20435;-70
2022/10/16 13:50:03;;;;;;;14.70;2.22;;;;;;;;;;5034616;28;20099;-70
2022/10/16 13:52:29;;;;;;;12.63;2.58;;;;;;;;;;5033224;28;20041;-70
2022/10/16 13:54:55;;;;;;;13.07;2.03;;;;;;;;;;5035269;28;20040;-70
2022/10/16 13:57:23;;;;;;;13.00;2.30;;;;;;;;;;5017407;28;20037;-70
2022/10/16 13:59:49;;;;;;;13.32;1.88;;;;;;;;;;5017425;28;20052;-70
2022/10/16 14:02:27;;;;;;;8.57;2.30;;;;;;;;;;5014758;28;20092;-70
2022/10/16 14:04:54;;;;;;;10.35;2.60;;;;;;;;;;5017569;28;20048;-70
2022/10/16 14:07:25;;;;;;;8.77;1.52;;;;;;;;;;5033383;28;20038;-70
2022/10/16 14:09:53;;;;;;;11.23;2.00;;;17.40;99.90;;;;;;5017263;28;20112;-70
2022/10/16 14:12:20;;;;;;;10.45;1.90;;;;;;;;;;5034276;28;20569;-71
2022/10/16 14:14:53;;;;;;;16.95;3.13;;;;;;;;;;5017255;28;20037;-71
2022/10/16 14:17:33;;;;;;;12.82;1.85;;;17.60;99.90;;;;;;5013672;28;20512;-70
2022/10/16 14:20:00;;;;;;;10.73;2.10;;;;;;;;;;5016615;28;20049;-70
2022/10/16 14:22:29;;;;;;;11.82;2.10;;;;;;;;;;5016802;28;20053;-70
2022/10/16 14:24:56;;;;;;;9.05;1.50;;;;;;;;;;5034567;28;20048;-70
2022/10/16 14:27:28;;;;;;;22.08;2.55;;;;;;;;;;5017114;28;20029;-70
2022/10/16 14:30:17;;;;;;;13.30;1.85;;;17.40;99.90;;;;;;5000119;28;20091;-71
2022/10/16 14:32:53;;;;;;;12.68;1.88;;;;;;;;;;5031841;28;20037;-71
2022/10/16 14:35:39;;;;;;;12.35;2.30;;;;;;;;;;5000448;28;20068;-71
2022/10/16 14:38:06;;;;;;;14.43;1.92;;;;;;;;;;4998095;28;20086;-70
2022/10/16 14:40:34;;;;;;;16.10;2.00;;;;;;;;;;5034405;28;20091;-70
2022/10/16 14:43:01;;;;;;;14.20;2.45;;;;;;;;;;5013676;28;20048;-70
2022/10/16 14:45:32;;;;;;;16.65;2.65;;;17.20;99.90;;;;;;5034460;28;20056;-70